Time;durP1;ratioP1;P1;durP2;ratioP2;P2;SDS_P1;SDS_P2;PMS_P1;PMS_P2;Temp;Humidity;BMP_temperature;BMP_pressure;BME280_temperature;BME280_humidity;BME280_pressure;Samples;Min_cycle;Max_cycle;Signal;HPM_P1;HPM_P2
2023/06/07 00:00:59;;;;;;;22.65;10.43;;;13.40;99.90;;;;;;4950987;29;20035;-73
2023/06/07 00:03:25;;;;;;;21.08;10.13;;;13.50;99.90;;;;;;4954064;28;20683;-73
2023/06/07 00:05:51;;;;;;;18.45;10.32;;;13.40;99.90;;;;;;4948233;29;20035;-73
2023/06/07 00:08:18;;;;;;;21.33;10.35;;;13.40;99.90;;;;;;4946899;29;20027;-74
2023/06/07 00:10:44;;;;;;;23.80;11.18;;;13.40;99.90;;;;;;4943367;29;20082;-73
2023/06/07 00:13:10;;;;;;;24.92;10.70;;;13.40;99.90;;;;;;4953148;28;20019;-73
2023/06/07 00:15:36;;;;;;;24.10;11.20;;;13.50;99.90;;;;;;4951371;28;20038;-72
2023/06/07 00:18:01;;;;;;;20.95;10.27;;;13.50;99.90;;;;;;4953681;29;20034;-72
2023/06/07 00:20:28;;;;;;;26.45;11.15;;;13.40;99.90;;;;;;4954564;28;20035;-73
2023/06/07 00:22:55;;;;;;;21.95;10.95;;;13.40;99.90;;;;;;4947293;28;20514;-73
2023/06/07 00:25:21;;;;;;;19.25;10.05;;;13.40;99.90;;;;;;4954691;28;20028;-74
2023/06/07 00:27:47;;;;;;;23.92;10.32;;;13.40;99.90;;;;;;4944823;29;20082;-74
2023/06/07 00:30:13;;;;;;;19.77;10.63;;;13.30;99.90;;;;;;4941925;28;20031;-74
2023/06/07 00:32:38;;;;;;;28.20;11.20;;;13.30;99.90;;;;;;4948706;29;20257;-74
2023/06/07 00:35:07;;;;;;;27.63;11.18;;;13.20;99.90;;;;;;4955148;29;20375;-74
2023/06/07 00:37:33;;;;;;;25.65;10.80;;;13.20;99.90;;;;;;4948086;28;20035;-73
2023/06/07 00:39:58;;;;;;;20.40;10.40;;;13.20;99.90;;;;;;4949231;29;20055;-73
2023/06/07 00:42:24;;;;;;;23.35;10.70;;;13.20;99.90;;;;;;4951589;29;20505;-73
2023/06/07 00:44:50;;;;;;;20.52;10.45;;;13.20;99.90;;;;;;4955433;29;20549;-73
2023/06/07 00:47:17;;;;;;;26.15;10.93;;;13.20;99.90;;;;;;4954582;29;20047;-72
2023/06/07 00:49:44;;;;;;;23.67;11.32;;;13.20;99.90;;;;;;4952069;28;20059;-73
2023/06/07 00:52:10;;;;;;;25.55;10.93;;;13.20;99.90;;;;;;4953106;28;20486;-73
2023/06/07 00:54:36;;;;;;;20.10;10.50;;;13.20;99.90;;;;;;4948078;29;20028;-73
2023/06/07 00:57:02;;;;;;;19.30;10.15;;;13.20;99.90;;;;;;4950176;29;20049;-73
2023/06/07 00:59:28;;;;;;;20.40;10.70;;;13.20;99.90;;;;;;4945794;29;20011;-73
2023/06/07 01:01:55;;;;;;;21.08;9.93;;;13.20;99.90;;;;;;4949386;29;20032;-73
2023/06/07 01:04:22;;;;;;;20.17;10.23;;;13.20;99.90;;;;;;4947933;28;20034;-72
2023/06/07 01:06:49;;;;;;;22.35;10.80;;;13.10;99.90;;;;;;4950410;28;20059;-73
2023/06/07 01:09:17;;;;;;;28.23;11.27;;;13.20;99.90;;;;;;4949219;28;20035;-73
2023/06/07 01:11:46;;;;;;;25.88;11.90;;;13.20;99.90;;;;;;4953266;28;20023;-74
2023/06/07 01:14:12;;;;;;;25.90;11.55;;;13.20;99.90;;;;;;4947990;29;20035;-73
2023/06/07 01:16:43;;;;;;;29.70;11.13;;;13.30;99.90;;;;;;4945446;28;20081;-73
2023/06/07 01:19:21;;;;;;;21.88;11.35;;;13.20;99.90;;;;;;4945493;29;20122;-74
2023/06/07 01:21:50;;;;;;;24.13;10.73;;;13.20;99.90;;;;;;4951182;28;20118;-73
2023/06/07 01:24:18;;;;;;;21.98;10.45;;;13.20;99.90;;;;;;4944064;29;20375;-73
2023/06/07 01:26:53;;;;;;;24.27;10.80;;;13.20;99.90;;;;;;4954183;29;20506;-73
2023/06/07 01:29:19;;;;;;;25.45;10.63;;;13.20;99.90;;;;;;4953997;29;20031;-73
2023/06/07 01:31:48;;;;;;;20.63;10.45;;;13.10;99.90;;;;;;4950978;29;20051;-72
2023/06/07 01:34:14;;;;;;;24.10;10.52;;;13.10;99.90;;;;;;4943558;29;20027;-72
2023/06/07 01:36:40;;;;;;;24.85;11.35;;;13.10;99.90;;;;;;4945520;29;20024;-73
2023/06/07 01:39:07;;;;;;;24.42;10.60;;;13.10;99.90;;;;;;4945276;29;20436;-73
2023/06/07 01:41:34;;;;;;;25.60;10.98;;;13.10;99.90;;;;;;4952323;29;20399;-73
2023/06/07 01:44:00;;;;;;;25.98;11.30;;;13.10;99.90;;;;;;4945235;29;20031;-72
2023/06/07 01:46:26;;;;;;;21.80;10.75;;;13.10;99.90;;;;;;4954678;29;20023;-73
2023/06/07 01:48:52;;;;;;;20.75;10.70;;;13.10;99.90;;;;;;4956030;28;20026;-73
2023/06/07 01:51:18;;;;;;;27.67;11.60;;;13.10;99.90;;;;;;4954747;29;21127;-74
2023/06/07 01:53:45;;;;;;;25.45;11.00;;;13.00;99.90;;;;;;4954140;29;20554;-74
2023/06/07 01:56:23;;;;;;;21.88;10.77;;;12.90;99.90;;;;;;4953607;28;20071;-74
2023/06/07 01:58:56;;;;;;;21.27;10.07;;;12.90;99.90;;;;;;4952970;28;20043;-74
2023/06/07 02:01:35;;;;;;;20.85;11.10;;;12.90;99.90;;;;;;4955692;29;20019;-74
2023/06/07 02:04:04;;;;;;;24.02;11.88;;;12.90;99.90;;;;;;4951778;29;20074;-74
2023/06/07 02:06:34;;;;;;;21.58;11.20;;;12.80;99.90;;;;;;4954207;29;20031;-74
2023/06/07 02:09:19;;;;;;;23.55;10.20;;;12.80;99.90;;;;;;4956702;28;20144;-73
2023/06/07 02:11:46;;;;;;;25.20;11.77;;;12.80;99.90;;;;;;4952672;29;20027;-74
2023/06/07 02:14:12;;;;;;;24.88;10.65;;;12.80;99.90;;;;;;4956796;28;20027;-73
2023/06/07 02:16:37;;;;;;;19.95;10.95;;;12.70;99.90;;;;;;4955082;29;20038;-74
2023/06/07 02:19:07;;;;;;;24.52;11.82;;;12.70;99.90;;;;;;4957102;28;20037;-74
2023/06/07 02:21:35;;;;;;;25.98;10.65;;;12.60;99.90;;;;;;4951072;29;20024;-74
2023/06/07 02:24:01;;;;;;;27.17;12.32;;;12.60;99.90;;;;;;4955440;29;20039;-74
2023/06/07 02:26:27;;;;;;;22.25;10.18;;;12.60;99.90;;;;;;4946326;29;20038;-74
2023/06/07 02:28:53;;;;;;;23.45;11.13;;;12.60;99.90;;;;;;4954841;28;20114;-74
2023/06/07 02:31:20;;;;;;;21.58;10.68;;;12.60;99.90;;;;;;4956406;28;20067;-74
2023/06/07 02:33:49;;;;;;;22.20;10.93;;;12.60;99.90;;;;;;4956004;28;20526;-74
2023/06/07 02:36:15;;;;;;;23.88;11.18;;;12.50;99.90;;;;;;4955460;28;20019;-74
2023/06/07 02:38:41;;;;;;;24.38;10.57;;;12.50;99.90;;;;;;4956456;28;20327;-73
2023/06/07 02:41:07;;;;;;;18.38;9.88;;;12.50;99.90;;;;;;4952055;29;20530;-74
2023/06/07 02:43:32;;;;;;;25.30;10.20;;;12.50;99.90;;;;;;4942797;29;20027;-74
2023/06/07 02:45:58;;;;;;;22.63;10.32;;;12.50;99.90;;;;;;4941799;29;20034;-74
2023/06/07 02:48:23;;;;;;;22.60;10.18;;;12.60;99.90;;;;;;4944936;29;20035;-73
2023/06/07 02:50:49;;;;;;;21.17;10.10;;;12.50;99.90;;;;;;4953073;29;20364;-73
2023/06/07 02:53:15;;;;;;;20.80;9.73;;;12.50;99.90;;;;;;4953711;28;20049;-73
2023/06/07 02:55:40;;;;;;;23.80;9.80;;;12.50;99.90;;;;;;4957144;28;20050;-74
2023/06/07 02:58:07;;;;;;;19.88;9.50;;;12.60;99.90;;;;;;4953807;28;20023;-73
2023/06/07 03:00:32;;;;;;;25.15;9.70;;;12.60;99.90;;;;;;4952068;28;20023;-74
2023/06/07 03:02:58;;;;;;;19.17;9.40;;;12.60;99.90;;;;;;4948708;29;20375;-73
2023/06/07 03:05:26;;;;;;;24.60;10.02;;;12.60;99.90;;;;;;4947526;28;20023;-74
2023/06/07 03:07:52;;;;;;;21.25;9.68;;;12.60;99.90;;;;;;4947665;29;20037;-74
2023/06/07 03:10:18;;;;;;;21.55;10.15;;;12.70;99.90;;;;;;4953321;29;20046;-74
2023/06/07 03:12:45;;;;;;;19.83;9.25;;;12.70;99.90;;;;;;4953199;28;20032;-73
2023/06/07 03:15:11;;;;;;;21.98;9.68;;;12.70;99.90;;;;;;4944012;29;20388;-73
2023/06/07 03:17:38;;;;;;;26.92;9.85;;;12.70;99.90;;;;;;4954813;28;20027;-73
2023/06/07 03:20:06;;;;;;;20.58;9.43;;;12.70;99.90;;;;;;4943328;29;20110;-73
2023/06/07 03:22:31;;;;;;;18.58;8.75;;;12.70;99.90;;;;;;4951681;28;20024;-74
2023/06/07 03:24:57;;;;;;;23.58;9.73;;;12.80;99.90;;;;;;4950781;28;20034;-74
2023/06/07 03:27:23;;;;;;;21.98;9.65;;;12.80;99.90;;;;;;4952108;28;20074;-71
2023/06/07 03:29:50;;;;;;;22.95;9.32;;;12.90;99.90;;;;;;4950589;28;20039;-73
2023/06/07 03:32:16;;;;;;;27.42;9.20;;;12.90;99.90;;;;;;4955500;28;20114;-72
2023/06/07 03:34:42;;;;;;;20.00;9.60;;;12.90;99.90;;;;;;4956084;28;20051;-73
2023/06/07 03:37:08;;;;;;;20.85;9.60;;;12.90;99.90;;;;;;4954907;29;20479;-73
2023/06/07 03:39:36;;;;;;;24.25;9.05;;;12.90;99.90;;;;;;4946482;29;20110;-73
2023/06/07 03:42:01;;;;;;;20.33;8.45;;;12.90;99.90;;;;;;4955594;29;20487;-73
2023/06/07 03:44:27;;;;;;;22.85;9.93;;;12.90;99.90;;;;;;4946328;29;20037;-73
2023/06/07 03:46:52;;;;;;;20.25;8.95;;;12.90;99.90;;;;;;4953558;28;20146;-73
2023/06/07 03:49:18;;;;;;;19.08;9.20;;;12.90;99.90;;;;;;4954284;28;20360;-72
2023/06/07 03:51:44;;;;;;;18.83;8.60;;;12.90;99.90;;;;;;4954685;29;20505;-73
2023/06/07 03:54:10;;;;;;;24.55;9.43;;;12.90;99.90;;;;;;4951427;29;20023;-73
2023/06/07 03:56:36;;;;;;;20.50;9.02;;;12.90;99.90;;;;;;4954609;29;20031;-74
2023/06/07 03:59:01;;;;;;;21.88;8.50;;;12.90;99.90;;;;;;4954241;28;20034;-73
2023/06/07 04:01:27;;;;;;;26.77;8.93;;;13.00;99.90;;;;;;4947422;29;20087;-73
2023/06/07 04:03:53;;;;;;;21.00;8.27;;;12.90;99.90;;;;;;4949605;29;20467;-73
2023/06/07 04:06:20;;;;;;;22.58;9.60;;;13.00;99.90;;;;;;4949838;28;20803;-74
2023/06/07 04:08:47;;;;;;;46.05;27.80;;;13.00;99.90;;;;;;4955249;28;20583;-73
2023/06/07 04:11:13;;;;;;;22.15;10.02;;;13.00;99.90;;;;;;4947130;28;20027;-73
2023/06/07 04:13:41;;;;;;;22.30;9.57;;;13.00;99.90;;;;;;4946178;29;20030;-73
2023/06/07 04:16:07;;;;;;;17.15;9.40;;;13.00;99.90;;;;;;4946073;29;20034;-73
2023/06/07 04:18:33;;;;;;;24.50;10.10;;;13.00;99.90;;;;;;4943845;28;20015;-73
2023/06/07 04:20:58;;;;;;;21.95;9.07;;;13.00;99.90;;;;;;4946455;28;20059;-73
2023/06/07 04:23:24;;;;;;;24.30;9.18;;;13.00;99.90;;;;;;4948057;29;20534;-72
2023/06/07 04:25:54;;;;;;;19.98;9.40;;;13.00;99.90;;;;;;4953306;29;20054;-73
2023/06/07 04:28:23;;;;;;;22.02;9.30;;;13.00;99.90;;;;;;4952412;29;20035;-73
2023/06/07 04:30:51;;;;;;;20.40;9.23;;;13.10;99.90;;;;;;4950670;29;20023;-73
2023/06/07 04:33:19;;;;;;;22.48;8.77;;;13.10;99.90;;;;;;4951438;28;20027;-73
2023/06/07 04:35:46;;;;;;;24.48;8.60;;;13.10;99.90;;;;;;4951947;29;20035;-73
2023/06/07 04:38:21;;;;;;;18.80;8.65;;;13.10;99.90;;;;;;4946908;28;20110;-74
2023/06/07 04:40:53;;;;;;;20.67;8.35;;;13.10;99.90;;;;;;4950060;28;20430;-73
2023/06/07 04:43:19;;;;;;;22.73;8.32;;;13.10;99.90;;;;;;4947762;29;20097;-72
2023/06/07 04:45:55;;;;;;;18.48;8.05;;;13.20;99.90;;;;;;4953304;28;20102;-72
2023/06/07 04:48:25;;;;;;;20.80;7.72;;;13.20;99.90;;;;;;4955684;28;20027;-73
2023/06/07 04:50:51;;;;;;;21.90;8.80;;;13.30;99.90;;;;;;4955414;29;20031;-72
2023/06/07 04:53:20;;;;;;;17.98;7.35;;;13.30;99.90;;;;;;4950582;28;20024;-73
2023/06/07 04:55:50;;;;;;;17.90;7.18;;;13.40;99.90;;;;;;4946431;29;20026;-72
2023/06/07 04:58:16;;;;;;;15.27;6.85;;;13.40;99.90;;;;;;4950808;28;20020;-73
2023/06/07 05:00:43;;;;;;;17.20;6.80;;;13.40;99.90;;;;;;4958178;28;20020;-73
2023/06/07 05:03:08;;;;;;;16.60;7.18;;;13.40;99.90;;;;;;4957088;28;20027;-73
2023/06/07 05:05:37;;;;;;;16.52;6.35;;;13.40;99.90;;;;;;4957007;28;20038;-73
2023/06/07 05:08:05;;;;;;;16.48;6.43;;;13.40;99.90;;;;;;4956812;29;20035;-74
2023/06/07 05:10:30;;;;;;;18.08;6.88;;;13.40;99.90;;;;;;4943810;29;20027;-73
2023/06/07 05:12:56;;;;;;;18.17;6.93;;;13.40;99.90;;;;;;4953318;28;20038;-73
2023/06/07 05:15:23;;;;;;;18.38;6.88;;;13.40;99.90;;;;;;4954364;29;20487;-73
2023/06/07 05:17:49;;;;;;;20.80;7.18;;;13.40;99.90;;;;;;4955241;28;20023;-73
2023/06/07 05:20:15;;;;;;;20.10;6.88;;;13.40;99.90;;;;;;4954158;29;20095;-75
2023/06/07 05:22:42;;;;;;;22.13;7.10;;;13.50;99.90;;;;;;4952404;28;20038;-72
2023/06/07 05:25:09;;;;;;;17.08;6.75;;;13.50;99.90;;;;;;4946886;29;20031;-73
2023/06/07 05:27:40;;;;;;;16.55;6.40;;;13.50;99.90;;;;;;4956893;28;20106;-73
2023/06/07 05:30:07;;;;;;;16.30;7.03;;;13.50;99.90;;;;;;4957456;28;20139;-73
2023/06/07 05:32:33;;;;;;;20.27;6.40;;;13.50;99.90;;;;;;4956519;29;20023;-73
2023/06/07 05:34:59;;;;;;;18.10;6.55;;;13.50;99.90;;;;;;4957126;28;20501;-73
2023/06/07 05:37:25;;;;;;;18.60;6.50;;;13.60;99.90;;;;;;4955024;28;20023;-73
2023/06/07 05:39:52;;;;;;;20.27;6.32;;;13.70;99.90;;;;;;4956251;29;20055;-74
2023/06/07 05:42:18;;;;;;;20.50;6.15;;;13.80;99.90;;;;;;4947146;28;20023;-72
2023/06/07 05:44:48;;;;;;;22.40;6.53;;;13.80;99.90;;;;;;4957030;29;20385;-73
2023/06/07 05:47:14;;;;;;;18.65;5.85;;;13.80;99.90;;;;;;4956886;29;20031;-73
2023/06/07 05:49:42;;;;;;;17.95;6.45;;;13.80;99.90;;;;;;4953105;28;20644;-73
2023/06/07 05:52:08;;;;;;;14.27;6.32;;;13.90;99.90;;;;;;4944984;29;20031;-73
2023/06/07 05:54:33;;;;;;;12.00;5.57;;;13.90;99.90;;;;;;4950347;28;20027;-73
2023/06/07 05:56:59;;;;;;;14.85;6.00;;;13.90;99.90;;;;;;4950809;29;20077;-73
2023/06/07 05:59:25;;;;;;;15.45;5.70;;;14.00;99.90;;;;;;4956492;28;20027;-73
2023/06/07 06:01:52;;;;;;;18.98;5.70;;;14.00;99.90;;;;;;4949114;28;20182;-73
2023/06/07 06:04:18;;;;;;;15.07;6.07;;;14.10;99.90;;;;;;4953303;29;20031;-73
2023/06/07 06:06:43;;;;;;;13.85;5.43;;;14.10;99.90;;;;;;4952142;29;20019;-73
2023/06/07 06:09:09;;;;;;;17.80;5.82;;;14.20;99.90;;;;;;4956165;28;20034;-73
2023/06/07 06:11:35;;;;;;;17.65;5.65;;;14.20;99.90;;;;;;4955559;28;20046;-74
2023/06/07 06:14:01;;;;;;;21.95;5.47;;;14.20;99.90;;;;;;4955125;28;20034;-73
2023/06/07 06:16:27;;;;;;;12.85;5.13;;;14.20;99.90;;;;;;4949163;29;20359;-73
2023/06/07 06:18:52;;;;;;;13.95;4.97;;;14.20;99.90;;;;;;4950303;29;20623;-73
2023/06/07 06:21:18;;;;;;;15.40;5.35;;;14.30;99.90;;;;;;4947235;29;20253;-73
2023/06/07 06:23:43;;;;;;;17.05;5.97;;;14.30;99.90;;;;;;4955627;29;20035;-73
2023/06/07 06:26:09;;;;;;;18.85;6.13;;;14.40;99.90;;;;;;4938529;29;20047;-73
2023/06/07 06:28:35;;;;;;;19.50;5.80;;;14.40;99.90;;;;;;4938866;29;20036;-74
2023/06/07 06:31:03;;;;;;;12.13;5.40;;;14.40;99.90;;;;;;4949347;29;20034;-72
2023/06/07 06:33:28;;;;;;;15.30;5.40;;;14.50;99.90;;;;;;4949583;29;20020;-73
2023/06/07 06:35:54;;;;;;;14.35;5.47;;;14.50;99.90;;;;;;4937430;29;20020;-74
2023/06/07 06:38:20;;;;;;;17.48;5.70;;;14.60;99.90;;;;;;4949047;29;20038;-72
2023/06/07 06:40:45;;;;;;;15.20;5.75;;;14.60;99.90;;;;;;4955637;28;20074;-74
2023/06/07 06:43:12;;;;;;;14.60;5.68;;;14.60;99.90;;;;;;4945919;28;20045;-73
2023/06/07 06:45:38;;;;;;;14.70;5.63;;;14.70;99.90;;;;;;4954731;29;20024;-74
2023/06/07 06:48:05;;;;;;;14.95;5.60;;;14.70;99.90;;;;;;4956374;29;20043;-73
2023/06/07 06:50:31;;;;;;;18.45;5.82;;;14.70;99.90;;;;;;4951204;28;20386;-72
2023/06/07 06:52:56;;;;;;;22.20;6.03;;;14.70;99.90;;;;;;4953832;28;20020;-73
2023/06/07 06:55:22;;;;;;;14.95;5.30;;;14.80;99.90;;;;;;4951712;28;20030;-72
2023/06/07 06:57:48;;;;;;;21.50;6.18;;;14.80;99.90;;;;;;4954943;28;20019;-73
2023/06/07 07:00:14;;;;;;;19.38;5.35;;;14.90;99.90;;;;;;4941438;28;20031;-72
2023/06/07 07:02:39;;;;;;;16.48;5.43;;;15.00;99.90;;;;;;4942110;29;20075;-73
2023/06/07 07:05:05;;;;;;;13.15;5.38;;;15.10;99.90;;;;;;4952603;29;20031;-73
2023/06/07 07:07:32;;;;;;;23.77;6.10;;;15.20;99.90;;;;;;4952931;28;20115;-73
2023/06/07 07:09:59;;;;;;;16.75;5.40;;;15.40;99.90;;;;;;4946525;28;20028;-72
2023/06/07 07:12:24;;;;;;;15.13;5.50;;;15.50;99.90;;;;;;4945316;28;20027;-73
2023/06/07 07:14:50;;;;;;;14.93;5.05;;;15.60;99.90;;;;;;4954758;29;20036;-73
2023/06/07 07:17:16;;;;;;;17.08;5.75;;;15.80;99.90;;;;;;4949914;28;20020;-74
2023/06/07 07:19:42;;;;;;;18.08;5.25;;;15.90;99.90;;;;;;4948302;29;20059;-73
2023/06/07 07:22:07;;;;;;;11.70;4.90;;;16.10;99.90;;;;;;4956608;28;20414;-73
2023/06/07 07:24:33;;;;;;;16.88;5.28;;;16.20;99.90;;;;;;4956510;28;20031;-73
2023/06/07 07:26:59;;;;;;;17.15;5.13;;;16.30;99.90;;;;;;4954519;28;20118;-73
2023/06/07 07:29:25;;;;;;;13.65;5.10;;;16.50;99.90;;;;;;4944966;29;20082;-72
2023/06/07 07:31:50;;;;;;;21.25;5.05;;;16.50;99.90;;;;;;4950052;28;20114;-72
2023/06/07 07:34:16;;;;;;;15.45;5.50;;;16.70;99.90;;;;;;4950345;29;20103;-73
2023/06/07 07:36:44;;;;;;;16.88;5.45;;;16.80;99.90;;;;;;4953683;29;20056;-72
2023/06/07 07:39:11;;;;;;;16.23;5.43;;;16.90;99.90;;;;;;4946983;29;20027;-76
2023/06/07 07:41:40;;;;;;;11.82;4.80;;;16.90;99.90;;;;;;4951681;28;20044;-74
2023/06/07 07:44:05;;;;;;;14.43;5.22;;;16.90;99.90;;;;;;4953091;29;20047;-74
2023/06/07 07:46:31;;;;;;;12.65;5.30;;;17.00;99.90;;;;;;4946966;29;20062;-74
2023/06/07 07:48:56;;;;;;;15.25;5.65;;;17.20;99.90;;;;;;4955820;28;20324;-73
2023/06/07 07:51:22;;;;;;;17.67;5.00;;;17.40;99.90;;;;;;4948280;29;20038;-74
2023/06/07 07:53:48;;;;;;;13.27;5.55;;;17.40;99.90;;;;;;4956817;28;20027;-73
2023/06/07 07:56:13;;;;;;;16.45;5.20;;;17.50;99.90;;;;;;4944545;29;20479;-73
2023/06/07 07:58:39;;;;;;;16.20;5.22;;;17.50;99.90;;;;;;4945093;29;20023;-74
2023/06/07 08:01:08;;;;;;;17.02;5.50;;;17.50;99.90;;;;;;4955799;28;20489;-73
2023/06/07 08:03:35;;;;;;;14.50;4.97;;;17.60;99.90;;;;;;4954676;29;20027;-73
2023/06/07 08:06:01;;;;;;;17.45;5.20;;;17.60;99.90;;;;;;4954570;29;20043;-73
2023/06/07 08:08:27;;;;;;;14.80;5.28;;;17.60;99.90;;;;;;4951281;29;20030;-72
2023/06/07 08:10:53;;;;;;;17.45;6.05;;;17.50;99.90;;;;;;4956146;28;20032;-73
2023/06/07 08:13:19;;;;;;;15.25;5.13;;;17.50;99.90;;;;;;4955883;28;20123;-72
2023/06/07 08:15:47;;;;;;;15.07;4.90;;;17.50;99.90;;;;;;4950629;28;20045;-72
2023/06/07 08:18:12;;;;;;;16.58;5.53;;;17.60;99.90;;;;;;4954719;28;20015;-73
2023/06/07 08:20:38;;;;;;;17.08;5.63;;;17.90;99.90;;;;;;4947438;29;20102;-73
2023/06/07 08:23:04;;;;;;;16.60;5.22;;;18.10;99.90;;;;;;4948681;28;20164;-73
2023/06/07 08:25:29;;;;;;;19.52;5.80;;;18.20;99.90;;;;;;4952783;29;20023;-72
2023/06/07 08:27:56;;;;;;;18.45;5.68;;;18.30;99.90;;;;;;4955030;29;20145;-73
2023/06/07 08:30:21;;;;;;;16.58;5.07;;;18.30;99.90;;;;;;4951308;29;20047;-73
2023/06/07 08:32:47;;;;;;;16.73;5.18;;;18.40;99.90;;;;;;4954265;29;20030;-73
2023/06/07 08:35:13;;;;;;;17.08;5.80;;;18.50;99.90;;;;;;4949140;29;20027;-73
2023/06/07 08:37:38;;;;;;;18.05;5.20;;;18.60;99.90;;;;;;4955511;28;20046;-73
2023/06/07 08:40:05;;;;;;;17.17;5.53;;;18.80;99.90;;;;;;4953712;28;20765;-74
2023/06/07 08:42:32;;;;;;;18.05;5.25;;;19.00;99.90;;;;;;4950496;29;20139;-74
2023/06/07 08:44:59;;;;;;;17.30;5.25;;;19.20;99.90;;;;;;4941320;29;20584;-74
2023/06/07 08:47:27;;;;;;;19.48;5.47;;;19.30;99.90;;;;;;4940141;29;20091;-74
2023/06/07 08:49:56;;;;;;;16.58;5.22;;;19.50;99.90;;;;;;4939023;29;20490;-74
2023/06/07 08:52:25;;;;;;;19.25;5.80;;;19.60;99.90;;;;;;4954936;28;20027;-74
2023/06/07 08:54:55;;;;;;;20.95;6.40;;;19.60;99.90;;;;;;4954116;28;20435;-73
2023/06/07 08:57:20;;;;;;;23.50;6.00;;;19.70;99.90;;;;;;4955668;28;20087;-76
2023/06/07 08:59:48;;;;;;;27.17;5.20;;;19.80;99.90;;;;;;4950974;28;20546;-72
2023/06/07 09:02:15;;;;;;;30.55;5.97;;;19.90;99.90;;;;;;4954756;28;20027;-73
2023/06/07 09:04:42;;;;;;;16.00;5.75;;;20.10;99.90;;;;;;4942573;28;20372;-73
2023/06/07 09:07:08;;;;;;;15.10;5.63;;;20.30;99.90;;;;;;4954214;29;20027;-73
2023/06/07 09:09:39;;;;;;;17.52;5.40;;;20.30;99.90;;;;;;4954915;28;20537;-74
2023/06/07 09:12:06;;;;;;;16.50;6.03;;;20.40;99.90;;;;;;4953033;29;20059;-74
2023/06/07 09:14:32;;;;;;;15.80;6.07;;;20.40;99.90;;;;;;4951084;29;20479;-75
2023/06/07 09:16:59;;;;;;;20.80;5.88;;;20.40;99.90;;;;;;4952789;29;20035;-75
2023/06/07 09:19:42;;;;;;;20.58;6.13;;;20.40;99.90;;;;;;4943671;28;20036;-73
2023/06/07 09:22:17;;;;;;;15.77;5.95;;;20.50;99.90;;;;;;4953012;29;20039;-74
2023/06/07 09:24:42;;;;;;;;;;;20.60;99.90;;;;;;4956350;28;20027;-75
2023/06/07 09:27:09;;;;;;;17.40;5.43;;;20.60;99.90;;;;;;4953215;28;19907;-74
2023/06/07 09:29:43;;;;;;;12.98;5.63;;;20.60;99.90;;;;;;4950911;29;20023;-74
2023/06/07 09:32:18;;;;;;;21.88;6.28;;;20.70;99.90;;;;;;4948994;28;20020;-73
2023/06/07 09:34:44;;;;;;;11.93;5.72;;;20.80;99.90;;;;;;4952870;28;20034;-74
2023/06/07 09:37:10;;;;;;;21.15;5.90;;;20.90;99.90;;;;;;4947798;28;20036;-73
2023/06/07 09:39:38;;;;;;;20.15;6.05;;;21.10;99.90;;;;;;4934558;29;20379;-74
2023/06/07 09:42:16;;;;;;;18.20;5.80;;;21.20;99.90;;;;;;4947679;29;20114;-74
2023/06/07 09:44:42;;;;;;;12.63;5.57;;;21.40;99.90;;;;;;4944670;28;20086;-73
2023/06/07 09:47:21;;;;;;;15.60;6.15;;;21.50;99.90;;;;;;4957482;28;20035;-74
2023/06/07 09:49:46;;;;;;;13.68;5.63;;;21.60;99.90;;;;;;4943093;29;20019;-75
2023/06/07 09:52:14;;;;;;;16.60;5.80;;;21.70;99.90;;;;;;4958867;28;20030;-75
2023/06/07 09:54:42;;;;;;;13.48;5.07;;;21.60;99.90;;;;;;4954378;28;20024;-74
2023/06/07 09:57:27;;;;;;;14.65;5.97;;;21.70;99.90;;;;;;4955564;28;20029;-75
2023/06/07 10:00:08;;;;;;;11.25;5.85;;;21.90;99.90;;;;;;4950464;29;20094;-74
2023/06/07 10:02:34;;;;;;;15.93;6.03;;;22.10;99.90;;;;;;4955748;29;20620;-75
2023/06/07 10:05:00;;;;;;;16.45;6.03;;;22.30;99.90;;;;;;4957936;29;20039;-74
2023/06/07 10:07:56;;;;;;;13.55;5.80;;;22.50;99.90;;;;;;4957780;28;20074;-74
2023/06/07 10:10:24;;;;;;;14.60;5.80;;;22.50;99.90;;;;;;4957981;28;20400;-74
2023/06/07 10:12:51;;;;;;;14.88;5.68;;;22.50;99.90;;;;;;4949831;29;20065;-75
2023/06/07 10:15:24;;;;;;;15.98;5.38;;;22.50;99.90;;;;;;4957785;28;20027;-74
2023/06/07 10:17:57;;;;;;;14.80;5.85;;;22.80;99.90;;;;;;4949442;29;20086;-75
2023/06/07 10:20:33;;;;;;;17.55;6.68;;;23.00;99.90;;;;;;4942915;29;20103;-73
2023/06/07 10:23:10;;;;;;;15.55;5.93;;;22.90;99.90;;;;;;4957240;28;20066;-74
2023/06/07 10:25:50;;;;;;;14.77;6.07;;;22.80;99.90;;;;;;4954842;28;20570;-74
2023/06/07 10:28:39;;;;;;;15.63;5.70;;;23.00;99.70;;;;;;4957372;28;20031;-76
2023/06/07 10:31:09;;;;;;;12.50;5.85;;;23.00;99.50;;;;;;4956431;28;20027;-73
2023/06/07 10:33:36;;;;;;;15.57;5.88;;;23.10;99.40;;;;;;4957900;28;20007;-73
2023/06/07 10:36:02;;;;;;;13.40;5.35;;;23.20;99.30;;;;;;4948492;28;20031;-74
2023/06/07 10:38:32;;;;;;;19.25;6.65;;;23.40;98.90;;;;;;4950459;28;20027;-74
2023/06/07 10:41:00;;;;;;;16.85;6.47;;;23.50;97.30;;;;;;4946761;29;20562;-73
2023/06/07 10:43:28;;;;;;;14.15;6.05;;;23.50;97.30;;;;;;4942958;28;20035;-74
2023/06/07 10:46:23;;;;;;;16.65;6.18;;;23.50;97.00;;;;;;4954806;29;20034;-73
2023/06/07 10:48:49;;;;;;;16.77;6.07;;;23.60;96.30;;;;;;4947083;28;20095;-74
2023/06/07 10:51:15;;;;;;;12.93;5.78;;;23.60;96.60;;;;;;4954267;29;20050;-73
2023/06/07 10:53:56;;;;;;;16.67;5.68;;;23.60;96.30;;;;;;4960111;28;20748;-74
2023/06/07 10:56:33;;;;;;;16.80;6.63;;;23.80;96.00;;;;;;4956915;28;20019;-74
2023/06/07 10:59:14;;;;;;;18.08;6.32;;;24.00;95.10;;;;;;4957290;29;20026;-74
2023/06/07 11:01:40;;;;;;;14.57;5.75;;;24.00;94.70;;;;;;4957301;29;20027;-74
2023/06/07 11:04:06;;;;;;;18.77;6.18;;;23.90;94.70;;;;;;4956335;28;20023;-74
2023/06/07 11:06:33;;;;;;;14.98;6.35;;;24.00;94.70;;;;;;4956727;28;20066;-74
2023/06/07 11:09:17;;;;;;;17.38;6.50;;;24.00;94.40;;;;;;4948780;28;20483;-74
2023/06/07 11:11:43;;;;;;;16.13;6.72;;;24.20;93.60;;;;;;4956501;29;20031;-74
2023/06/07 11:14:12;;;;;;;17.00;6.40;;;24.20;92.90;;;;;;4941547;28;20355;-76
2023/06/07 11:16:39;;;;;;;16.70;6.28;;;24.20;93.00;;;;;;4951989;29;20042;-74
2023/06/07 11:19:13;;;;;;;17.67;6.25;;;24.20;92.50;;;;;;4944414;28;20434;-75
2023/06/07 11:21:54;;;;;;;13.97;5.33;;;24.30;92.10;;;;;;4957129;28;20042;-74
2023/06/07 11:24:20;;;;;;;15.32;6.10;;;24.40;91.80;;;;;;4946285;29;20027;-74
2023/06/07 11:26:47;;;;;;;14.90;6.13;;;24.60;91.40;;;;;;4956793;29;20034;-74
2023/06/07 11:29:15;;;;;;;12.43;5.55;;;24.70;91.10;;;;;;4953355;29;20023;-72
2023/06/07 11:31:41;;;;;;;13.40;6.15;;;24.70;90.70;;;;;;4946011;28;20099;-73
2023/06/07 11:34:09;;;;;;;17.77;6.60;;;24.70;89.50;;;;;;4951872;29;20043;-72
2023/06/07 11:36:35;;;;;;;15.55;6.65;;;24.60;88.60;;;;;;4956349;29;20019;-72
2023/06/07 11:39:05;;;;;;;16.08;6.03;;;24.50;90.00;;;;;;4956087;29;20054;-75
2023/06/07 11:41:31;;;;;;;14.23;6.07;;;24.60;90.20;;;;;;4957016;29;20090;-77
2023/06/07 11:44:01;;;;;;;14.23;6.43;;;24.80;88.20;;;;;;4952618;29;20036;-72
2023/06/07 11:46:32;;;;;;;17.88;7.03;;;24.80;88.10;;;;;;4959400;28;20042;-72
2023/06/07 11:49:02;;;;;;;16.17;6.20;;;24.70;86.40;;;;;;4944190;29;20011;-72
2023/06/07 11:51:29;;;;;;;15.63;6.15;;;24.60;88.30;;;;;;4952823;29;20083;-75
2023/06/07 11:53:58;;;;;;;14.60;6.18;;;24.80;88.90;;;;;;4956435;28;20061;-75
2023/06/07 11:56:25;;;;;;;13.73;5.70;;;25.00;87.40;;;;;;4953198;28;20051;-75
2023/06/07 11:58:51;;;;;;;17.55;6.55;;;25.20;87.20;;;;;;4955049;28;20034;-75
2023/06/07 12:01:18;;;;;;;15.10;6.35;;;25.30;85.70;;;;;;4955386;28;20031;-75
2023/06/07 12:03:44;;;;;;;14.70;6.05;;;25.40;83.00;;;;;;4955994;28;20541;-75
2023/06/07 12:06:09;;;;;;;16.20;6.05;;;25.40;82.90;;;;;;4955217;29;20106;-76
2023/06/07 12:08:35;;;;;;;16.77;6.90;;;25.30;83.00;;;;;;4954912;28;20375;-73
2023/06/07 12:11:01;;;;;;;13.25;5.85;;;25.40;83.30;;;;;;4955828;29;20023;-74
2023/06/07 12:13:30;;;;;;;15.07;6.57;;;25.50;83.00;;;;;;4946025;28;20031;-74
2023/06/07 12:15:58;;;;;;;14.68;6.75;;;25.50;81.10;;;;;;4949898;28;20031;-77
2023/06/07 12:18:27;;;;;;;19.15;7.30;;;25.50;80.90;;;;;;4951447;29;20113;-76
2023/06/07 12:21:11;;;;;;;20.88;6.75;;;25.50;80.90;;;;;;4942318;29;20039;-74
2023/06/07 12:23:44;;;;;;;17.35;5.97;;;25.60;79.40;;;;;;4953032;28;20542;-75
2023/06/07 12:26:19;;;;;;;22.10;7.28;;;25.60;80.10;;;;;;4954645;28;20119;-75
2023/06/07 12:28:47;;;;;;;14.48;6.95;;;25.70;79.30;;;;;;4955425;29;20034;-75
2023/06/07 12:31:19;;;;;;;19.75;6.95;;;25.70;78.90;;;;;;4954658;28;20427;-75
2023/06/07 12:34:05;;;;;;;15.05;6.50;;;25.80;77.70;;;;;;4948496;29;20035;-74
2023/06/07 12:36:36;;;;;;;15.70;6.90;;;25.80;77.10;;;;;;4951613;29;20024;-76
2023/06/07 12:39:07;;;;;;;16.02;6.85;;;25.60;77.50;;;;;;4953439;29;20034;-75